Time;durP1;ratioP1;P1;durP2;ratioP2;P2;SDS_P1;SDS_P2;PMS_P1;PMS_P2;Temp;Humidity;BMP_temperature;BMP_pressure;BME280_temperature;BME280_humidity;BME280_pressure;Samples;Min_cycle;Max_cycle;Signal;HPM_P1;HPM_P2
2022/03/21 00:02:13;;;;;;;15.17;6.80;;;;;;;;;;5033955;28;21052;-75
2022/03/21 00:04:44;;;;;;;14.67;6.30;;;;;;;;;;5034246;28;20423;-75
2022/03/21 00:07:10;;;;;;;18.80;7.07;;;;;;;;;;5033925;28;20461;-76
2022/03/21 00:09:37;;;;;;;32.60;9.27;;;;;;;;;;5034408;28;20434;-75
2022/03/21 00:12:04;;;;;;;18.10;6.97;;;;;;;;;;5034112;28;20430;-75
2022/03/21 00:14:32;;;;;;;20.37;6.80;;;;;;;;;;5034350;28;20486;-75
2022/03/21 00:17:25;;;;;;;21.10;7.33;;;;;;;;;;5033807;28;20426;-76
2022/03/21 00:19:51;;;;;;;19.37;7.17;;;;;;;;;;5050415;28;20487;-76
2022/03/21 00:22:25;;;;;;;17.30;6.53;;;;;;;;;;5044258;28;20513;-76
2022/03/21 00:24:52;;;;;;;17.90;7.40;;;;;;;;;;5033780;28;20418;-75
2022/03/21 00:27:18;;;;;;;15.30;6.47;;;;;;;;;;5034789;28;20450;-76
2022/03/21 00:29:44;;;;;;;19.43;8.00;;;;;;;;;;5034304;28;20411;-75
2022/03/21 00:32:11;;;;;;;20.13;8.30;;;;;;;;;;5035023;28;20976;-75
2022/03/21 00:34:37;;;;;;;17.63;6.93;;;;;;;;;;5036440;28;20423;-75
2022/03/21 00:37:14;;;;;;;15.70;6.80;;;;;;;;;;5033631;28;20506;-76
2022/03/21 00:39:41;;;;;;;14.20;5.90;;;;;;;;;;5033630;28;20884;-75
2022/03/21 00:42:07;;;;;;;17.93;7.20;;;;;;;;;;5033435;28;20455;-76
2022/03/21 00:44:43;;;;;;;22.00;7.63;;;;;;;;;;5033680;28;20415;-75
2022/03/21 00:47:10;;;;;;;34.70;8.50;;;;;;;;;;5033772;28;20911;-73
2022/03/21 00:49:36;;;;;;;18.63;7.07;;;;;;;;;;5033437;28;20796;-73
2022/03/21 00:52:08;;;;;;;23.97;8.10;;;;;;;;;;5032659;28;20423;-73
2022/03/21 00:54:34;;;;;;;24.37;6.93;;;;;;;;;;5033313;28;20419;-73
2022/03/21 00:57:00;;;;;;;31.27;8.33;;;;;;;;;;5032942;28;20938;-73
2022/03/21 00:59:26;;;;;;;40.63;10.23;;;;;;;;;;5032948;28;20935;-73
2022/03/21 01:01:53;;;;;;;30.83;9.00;;;;;;;;;;5038453;28;20931;-75
2022/03/21 01:04:19;;;;;;;20.43;7.63;;;;;;;;;;5033414;28;20395;-75
2022/03/21 01:06:50;;;;;;;21.80;7.30;;;;;;;;;;5037695;28;20904;-76
2022/03/21 01:09:17;;;;;;;16.53;6.87;;;;;;;;;;5033310;28;20900;-75
2022/03/21 01:11:43;;;;;;;26.90;8.60;;;;;;;;;;5033135;28;20430;-75
2022/03/21 01:14:10;;;;;;;18.57;6.73;;;5.20;1.00;;;;;;5033320;28;20423;-75
2022/03/21 01:16:37;;;;;;;26.00;7.87;;;;;;;;;;5033462;28;20419;-73
2022/03/21 01:19:03;;;;;;;21.70;7.20;;;;;;;;;;5032648;28;20939;-73
2022/03/21 01:21:30;;;;;;;18.23;6.70;;;;;;;;;;5036113;28;20791;-73
2022/03/21 01:23:56;;;;;;;20.23;7.53;;;;;;;;;;5032757;28;20858;-73
2022/03/21 01:26:22;;;;;;;19.87;7.97;;;;;;;;;;5032951;28;20427;-73
2022/03/21 01:28:48;;;;;;;18.07;7.13;;;;;;;;;;5032480;28;20429;-73
2022/03/21 01:31:15;;;;;;;21.13;7.73;;;;;;;;;;5034190;28;20930;-73
2022/03/21 01:33:41;;;;;;;20.87;7.37;;;;;;;;;;5039531;28;20435;-73
2022/03/21 01:36:07;;;;;;;21.30;7.70;;;5.10;1.00;;;;;;5045282;28;20434;-73
2022/03/21 01:38:34;;;;;;;17.33;7.27;;;5.10;1.00;;;;;;5036424;28;20434;-73
2022/03/21 01:41:00;;;;;;;28.50;8.90;;;;;;;;;;5036467;28;20926;-73
2022/03/21 01:43:27;;;;;;;19.77;7.80;;;;;;;;;;5036176;28;20429;-73
2022/03/21 01:45:55;;;;;;;19.77;7.90;;;;;;;;;;5036989;28;20911;-75
2022/03/21 01:48:26;;;;;;;19.33;7.33;;;;;;;;;;5036507;28;20406;-75
2022/03/21 01:50:56;;;;;;;17.87;7.33;;;;;;;;;;5047867;28;20772;-75
2022/03/21 01:56:07;;;;;;;23.33;8.37;;;5.10;1.00;;;;;;5036679;28;20417;-75
2022/03/21 01:58:34;;;;;;;20.87;6.70;;;;;;;;;;5041164;28;20480;-75
2022/03/21 02:01:01;;;;;;;16.97;6.70;;;;;;;;;;5035825;28;20458;-75
2022/03/21 02:03:31;;;;;;;18.60;7.20;;;;;;;;;;5043115;28;20993;-75
2022/03/21 02:06:02;;;;;;;26.93;8.03;;;;;;;;;;5036726;28;20391;-75
2022/03/21 02:08:29;;;;;;;21.77;7.07;;;5.20;1.00;;;;;;5036475;28;20423;-76
2022/03/21 02:11:02;;;;;;;18.83;7.53;;;;;;;;;;5018561;28;20856;-75
2022/03/21 02:13:32;;;;;;;22.40;9.27;;;;;;;;;;5038350;28;20923;-75
2022/03/21 02:15:59;;;;;;;18.00;7.47;;;5.40;1.00;;;;;;5036861;28;20441;-73
2022/03/21 02:18:26;;;;;;;15.20;6.60;;;;;;;;;;5034156;28;20430;-73
2022/03/21 02:20:56;;;;;;;24.90;7.67;;;;;;;;;;5035581;28;20473;-73
2022/03/21 02:23:38;;;;;;;14.73;6.30;;;;;;;;;;5035897;28;20781;-73
2022/03/21 02:26:06;;;;;;;23.53;7.00;;;;;;;;;;5035879;28;20419;-73
2022/03/21 02:28:33;;;;;;;18.70;7.27;;;;;;;;;;5022741;28;20403;-73
2022/03/21 02:30:59;;;;;;;30.58;7.40;;;;;;;;;;5035452;28;20411;-75
2022/03/21 02:33:25;;;;;;;16.87;7.50;;;;;;;;;;5036369;28;20172;-75
2022/03/21 02:35:56;;;;;;;27.37;8.03;;;;;;;;;;5037356;28;20422;-75
2022/03/21 02:38:24;;;;;;;20.60;7.27;;;5.90;1.00;;;;;;5023549;28;20453;-75
2022/03/21 02:40:55;;;;;;;18.97;7.27;;;;;;;;;;5036684;28;20459;-76
2022/03/21 02:43:22;;;;;;;17.80;6.80;;;;;;;;;;5035718;28;20427;-75
2022/03/21 02:45:50;;;;;;;25.00;8.23;;;;;;;;;;5034757;28;20439;-75
2022/03/21 02:48:18;;;;;;;15.77;7.13;;;;;;;;;;5035868;28;20411;-75
2022/03/21 02:51:14;;;;;;;17.17;6.93;;;5.80;1.00;;;;;;5035649;28;20439;-75
2022/03/21 02:53:41;;;;;;;30.77;7.57;;;;;;;;;;4930836;29;20444;-76
2022/03/21 02:56:14;;;;;;;17.40;7.40;;;;;;;;;;4935738;29;20901;-75
2022/03/21 02:58:40;;;;;;;18.67;7.83;;;;;;;;;;4937924;29;20443;-75
2022/03/21 03:01:16;;;;;;;20.93;7.43;;;5.60;1.00;;;;;;4936153;29;20459;-75
2022/03/21 03:03:44;;;;;;;13.63;6.73;;;5.60;1.00;;;;;;4935986;29;20439;-75
2022/03/21 03:06:14;;;;;;;29.67;7.50;;;;;;;;;;4936124;29;20416;-75
2022/03/21 03:08:44;;;;;;;15.47;6.80;;;5.50;1.00;;;;;;4936088;29;20781;-75
2022/03/21 03:11:10;;;;;;;19.23;6.70;;;;;;;;;;4926166;29;20523;-75
2022/03/21 03:13:37;;;;;;;20.40;7.03;;;;;;;;;;4932589;29;20428;-75
2022/03/21 03:16:03;;;;;;;18.77;6.43;;;;;;;;;;4927486;29;20415;-75
2022/03/21 03:18:29;;;;;;;19.90;6.60;;;;;;;;;;4934774;29;20505;-73
2022/03/21 03:20:56;;;;;;;16.40;6.40;;;;;;;;;;4919583;29;20963;-73
2022/03/21 03:23:28;;;;;;;21.40;6.83;;;5.30;1.00;;;;;;4934596;29;20582;-73
2022/03/21 03:26:01;;;;;;;17.60;6.60;;;5.20;1.00;;;;;;4929040;29;20490;-73
2022/03/21 03:28:28;;;;;;;32.83;7.70;;;;;;;;;;4935356;29;20439;-73
2022/03/21 03:30:54;;;;;;;15.23;6.20;;;5.10;1.00;;;;;;5016654;28;20411;-73
2022/03/21 03:33:21;;;;;;;16.53;6.43;;;;;;;;;;5036325;28;20503;-75
2022/03/21 03:35:47;;;;;;;20.20;6.63;;;;;;;;;;5035325;28;20431;-75
2022/03/21 03:38:13;;;;;;;14.43;6.37;;;;;;;;;;5034701;28;20411;-75
2022/03/21 03:40:44;;;;;;;19.67;7.50;;;;;;;;;;5034807;28;20467;-75
2022/03/21 03:43:16;;;;;;;16.23;6.73;;;4.90;1.00;;;;;;5022670;28;20419;-75
2022/03/21 03:45:44;;;;;;;15.60;7.07;;;;;;;;;;5034484;28;20427;-75
2022/03/21 03:48:10;;;;;;;15.50;6.00;;;;;;;;;;5034949;28;20442;-75
2022/03/21 03:50:36;;;;;;;15.20;6.27;;;;;;;;;;5034689;28;20733;-75
2022/03/21 03:53:03;;;;;;;18.60;6.73;;;;;;;;;;5035458;28;20484;-75
2022/03/21 03:55:32;;;;;;;19.47;7.37;;;;;;;;;;5034437;28;20411;-75
2022/03/21 03:57:58;;;;;;;40.33;9.30;;;;;;;;;;5039437;28;20426;-75
2022/03/21 04:00:24;;;;;;;17.43;6.47;;;;;;;;;;5034289;28;20947;-75
2022/03/21 04:05:35;;;;;;;15.40;7.83;;;;;;;;;;5033876;28;20485;-73
2022/03/21 04:08:02;;;;;;;23.30;9.10;;;;;;;;;;5034078;28;20468;-73
2022/03/21 04:10:28;;;;;;;17.90;8.50;;;;;;;;;;5033942;28;20464;-73
2022/03/21 04:12:54;;;;;;;18.37;8.57;;;;;;;;;;5033491;28;20415;-73
2022/03/21 04:15:23;;;;;;;21.43;9.20;;;;;;;;;;5033598;28;20434;-73
2022/03/21 04:17:59;;;;;;;20.67;9.10;;;;;;;;;;5035347;28;20426;-75
2022/03/21 04:20:25;;;;;;;21.57;9.50;;;;;;;;;;5033777;28;20471;-75
2022/03/21 04:22:56;;;;;;;19.17;9.10;;;;;;;;;;5033891;28;20949;-75
2022/03/21 04:25:22;;;;;;;18.70;9.20;;;;;;;;;;5021266;28;20411;-75
2022/03/21 04:27:48;;;;;;;20.97;9.47;;;;;;;;;;5036881;28;20407;-75
2022/03/21 04:30:20;;;;;;;16.60;8.80;;;;;;;;;;5037189;28;20487;-75
2022/03/21 04:32:46;;;;;;;20.73;9.27;;;;;;;;;;5036478;28;20453;-73
2022/03/21 04:35:13;;;;;;;27.53;9.40;;;;;;;;;;5033472;28;20172;-73
2022/03/21 04:37:40;;;;;;;27.30;8.85;;;4.20;1.00;;;;;;5035108;28;20414;-73
2022/03/21 04:40:07;;;;;;;20.13;9.17;;;;;;;;;;5036127;28;20514;-73
2022/03/21 04:42:36;;;;;;;26.07;8.30;;;4.20;1.00;;;;;;5033207;28;20406;-73
2022/03/21 04:45:02;;;;;;;22.53;9.90;;;;;;;;;;5032987;28;20442;-73
2022/03/21 04:47:29;;;;;;;28.70;9.97;;;;;;;;;;5033525;28;20463;-75
2022/03/21 04:49:55;;;;;;;17.48;8.60;;;;;;;;;;5045214;28;20406;-75
2022/03/21 04:52:21;;;;;;;22.60;9.30;;;;;;;;;;5038026;28;20653;-75
2022/03/21 04:54:50;;;;;;;22.00;9.00;;;;;;;;;;5033430;28;20983;-75
2022/03/21 04:57:20;;;;;;;26.60;9.53;;;;;;;;;;5034236;28;20420;-75
2022/03/21 04:59:46;;;;;;;25.43;10.13;;;;;;;;;;5033728;28;20403;-75
2022/03/21 05:02:13;;;;;;;26.80;9.50;;;;;;;;;;5033648;28;20458;-75
2022/03/21 05:04:39;;;;;;;27.00;9.75;;;;;;;;;;5033286;28;20426;-76
2022/03/21 05:07:12;;;;;;;219.32;24.33;;;;;;;;;;5007667;28;20191;-75
2022/03/21 05:09:41;;;;;;;338.25;34.97;;;;;;;;;;5032258;28;20179;-75
2022/03/21 05:12:08;;;;;;;28.80;10.40;;;;;;;;;;5039132;28;20175;-75
2022/03/21 05:14:34;;;;;;;20.80;9.87;;;;;;;;;;5031918;28;20207;-75
2022/03/21 05:17:02;;;;;;;29.53;11.43;;;;;;;;;;5030165;28;20407;-75
2022/03/21 05:19:28;;;;;;;29.88;9.82;;;;;;;;;;5039201;28;20786;-73
2022/03/21 05:21:55;;;;;;;21.43;9.17;;;;;;;;;;5026587;28;20204;-73
2022/03/21 05:32:34;;;;;;;23.10;10.45;;;;;;;;;;5021021;28;20549;-73
2022/03/21 05:37:45;;;;;;;21.77;9.52;;;;;;;;;;5018939;28;20470;-73
2022/03/21 05:40:41;;;;;;;22.43;9.70;;;3.70;1.00;;;;;;5019066;28;20224;-73
2022/03/21 05:43:07;;;;;;;20.17;9.60;;;;;;;;;;5018675;28;20451;-73
2022/03/21 05:45:33;;;;;;;22.90;9.20;;;;;;;;;;5018951;28;20183;-73
2022/03/21 05:50:44;;;;;;;28.75;9.43;;;;;;;;;;5018133;28;20195;-72
2022/03/21 05:53:10;;;;;;;24.80;10.10;;;;;;;;;;5018652;28;20191;-73
2022/03/21 05:55:38;;;;;;;27.30;9.77;;;;;;;;;;5018750;28;20831;-73
2022/03/21 05:58:04;;;;;;;19.98;9.80;;;;;;;;;;5018907;28;20704;-73
2022/03/21 06:00:30;;;;;;;26.15;10.50;;;;;;;;;;5020495;28;20205;-73
2022/03/21 06:02:56;;;;;;;21.92;9.25;;;;;;;;;;5026252;28;20188;-73
2022/03/21 06:05:26;;;;;;;21.42;10.10;;;;;;;;;;5026272;28;20693;-75
2022/03/21 06:07:56;;;;;;;26.20;10.20;;;;;;;;;;5025539;28;20178;-75
2022/03/21 06:10:26;;;;;;;23.50;9.15;;;;;;;;;;5017959;28;20560;-75
2022/03/21 06:13:08;;;;;;;21.00;10.07;;;;;;;;;;5026258;28;20169;-75
2022/03/21 06:15:50;;;;;;;21.38;8.30;;;;;;;;;;5019777;28;20443;-75
2022/03/21 06:18:26;;;;;;;22.90;9.27;;;;;;;;;;5030219;28;20183;-75
2022/03/21 06:20:53;;;;;;;20.60;9.17;;;;;;;;;;5029444;28;20563;-76
2022/03/21 06:23:19;;;;;;;17.48;9.00;;;;;;;;;;5041533;28;20425;-76
2022/03/21 06:25:45;;;;;;;17.90;7.03;;;;;;;;;;5036847;28;20645;-76
2022/03/21 06:28:11;;;;;;;17.20;7.53;;;4.40;1.00;;;;;;5038865;28;20426;-76
2022/03/21 06:30:38;;;;;;;19.17;7.47;;;;;;;;;;5036005;28;20422;-70
2022/03/21 06:33:04;;;;;;;24.80;8.00;;;;;;;;;;5035821;28;20740;-73
2022/03/21 06:35:30;;;;;;;21.23;7.00;;;;;;;;;;5045120;28;20433;-75
2022/03/21 06:37:56;;;;;;;21.73;8.30;;;;;;;;;;5052240;28;20403;-74
2022/03/21 06:40:27;;;;;;;20.43;6.60;;;;;;;;;;5032972;28;20466;-74
2022/03/21 06:42:53;;;;;;;19.10;7.87;;;;;;;;;;5032065;28;20803;-74
2022/03/21 06:45:21;;;;;;;140.87;16.47;;;;;;;;;;5025952;28;20896;-74
2022/03/21 06:47:47;;;;;;;15.27;6.90;;;;;;;;;;5035596;28;20415;-74
2022/03/21 06:50:14;;;;;;;15.47;6.47;;;;;;;;;;5035853;28;20461;-72
2022/03/21 06:52:40;;;;;;;14.93;7.20;;;;;;;;;;5035544;28;20403;-72
2022/03/21 06:55:12;;;;;;;21.57;8.00;;;;;;;;;;5035612;28;20423;-72
2022/03/21 06:57:39;;;;;;;14.87;6.83;;;5.70;1.00;;;;;;5034341;28;20454;-72
2022/03/21 07:00:06;;;;;;;32.27;8.90;;;5.80;1.00;;;;;;5034299;28;20523;-72
2022/03/21 07:02:32;;;;;;;17.63;6.47;;;6.00;1.00;;;;;;5034438;28;20473;-72
2022/03/21 07:04:58;;;;;;;13.77;6.37;;;;;;;;;;5035013;28;20465;-72
2022/03/21 07:07:25;;;;;;;37.67;9.20;;;;;;;;;;5033429;28;20451;-73
2022/03/21 07:09:51;;;;;;;27.87;7.90;;;;;;;;;;5032547;28;20423;-74
2022/03/21 07:12:18;;;;;;;24.67;7.93;;;;;;;;;;5034100;28;20484;-73
2022/03/21 07:14:46;;;;;;;19.07;7.33;;;;;;;;;;5035423;28;20423;-73
2022/03/21 07:17:12;;;;;;;15.53;7.07;;;;;;;;;;5040031;28;20501;-73
2022/03/21 07:19:39;;;;;;;17.37;6.53;;;;;;;;;;5035387;28;20444;-74
2022/03/21 07:22:06;;;;;;;19.20;7.37;;;;;;;;;;5034202;28;20458;-75
2022/03/21 07:24:32;;;;;;;26.87;7.93;;;;;;;;;;5034996;28;20407;-75
2022/03/21 07:26:58;;;;;;;20.00;7.80;;;;;;;;;;5046221;28;20761;-75
2022/03/21 07:29:25;;;;;;;23.03;8.00;;;;;;;;;;5033883;28;20437;-75
2022/03/21 07:31:51;;;;;;;22.17;7.37;;;;;;;;;;5033564;28;20427;-75
2022/03/21 07:34:17;;;;;;;28.30;8.83;;;;;;;;;;5035270;28;20907;-73
2022/03/21 07:36:43;;;;;;;26.07;8.20;;;;;;;;;;5034042;28;20415;-74
2022/03/21 07:39:09;;;;;;;22.07;7.90;;;;;;;;;;5044635;28;20457;-75
2022/03/21 07:41:35;;;;;;;33.17;8.73;;;;;;;;;;5033290;28;20981;-78
2022/03/21 07:44:01;;;;;;;19.83;8.27;;;;;;;;;;5044757;28;20418;-73
2022/03/21 07:49:13;;;;;;;21.83;7.90;;;8.50;1.00;;;;;;5041639;28;20480;-74
2022/03/21 07:51:43;;;;;;;20.23;7.97;;;;;;;;;;5043727;28;20406;-76
2022/03/21 07:54:09;;;;;;;21.33;8.47;;;;;;;;;;5033512;28;20418;-76
2022/03/21 07:56:35;;;;;;;16.43;7.53;;;;;;;;;;5033521;28;20414;-76
2022/03/21 07:59:03;;;;;;;30.97;8.90;;;;;;;;;;5034389;28;20460;-76
2022/03/21 08:01:32;;;;;;;20.77;7.60;;;;;;;;;;5035746;28;20544;-75
2022/03/21 08:04:00;;;;;;;21.83;8.60;;;9.00;99.90;;;;;;5036116;28;20419;-76
2022/03/21 08:06:26;;;;;;;22.40;9.10;;;;;;;;;;5043018;28;20430;-76
2022/03/21 08:08:54;;;;;;;21.13;8.30;;;;;;;;;;5039022;28;20824;-76
2022/03/21 08:11:20;;;;;;;20.60;8.40;;;;;;;;;;5035470;28;20423;-75
2022/03/21 08:13:49;;;;;;;26.60;10.00;;;;;;;;;;5033839;28;20481;-74
2022/03/21 08:16:20;;;;;;;21.73;9.70;;;9.60;99.90;;;;;;5036459;28;20415;-74
2022/03/21 08:18:50;;;;;;;20.30;8.30;;;9.70;99.90;;;;;;5033667;28;20411;-74
2022/03/21 08:21:16;;;;;;;22.63;9.77;;;;;;;;;;5037852;28;20490;-75
2022/03/21 08:23:42;;;;;;;26.93;8.40;;;;;;;;;;5033688;28;20408;-74
2022/03/21 08:26:10;;;;;;;20.87;9.43;;;;;;;;;;5033680;28;20409;-74
2022/03/21 08:28:36;;;;;;;22.10;9.13;;;;;;;;;;5033582;28;20422;-74
2022/03/21 08:31:08;;;;;;;15.60;8.17;;;;;;;;;;5040883;28;20502;-76
2022/03/21 08:33:38;;;;;;;18.50;8.47;;;;;;;;;;5045876;28;20771;-76
2022/03/21 08:36:04;;;;;;;20.23;8.73;;;;;;;;;;5034455;28;20390;-76
2022/03/21 08:38:30;;;;;;;17.90;8.67;;;;;;;;;;5033525;28;20415;-76
2022/03/21 08:40:58;;;;;;;20.73;8.87;;;;;;;;;;5033391;28;20564;-75
2022/03/21 08:43:24;;;;;;;21.63;8.57;;;;;;;;;;5044826;28;20446;-76
2022/03/21 08:45:50;;;;;;;21.57;10.00;;;;;;;;;;5033337;28;20465;-73
2022/03/21 08:48:16;;;;;;;21.07;8.80;;;;;;;;;;5034054;28;20418;-74
2022/03/21 08:50:43;;;;;;;21.23;8.90;;;;;;;;;;5040400;28;20410;-74
2022/03/21 08:53:10;;;;;;;20.20;8.67;;;;;;;;;;5033243;28;20420;-74
2022/03/21 08:55:36;;;;;;;20.87;9.37;;;;;;;;;;5042794;28;20414;-73
2022/03/21 08:58:02;;;;;;;21.93;8.70;;;;;;;;;;5033506;28;20528;-73
2022/03/21 09:00:28;;;;;;;24.13;10.03;;;;;;;;;;5029327;28;20628;-73
2022/03/21 09:02:55;;;;;;;22.23;9.40;;;;;;;;;;5036803;28;20427;-73
2022/03/21 09:05:22;;;;;;;20.50;9.57;;;;;;;;;;5045665;28;20392;-75
2022/03/21 09:07:48;;;;;;;24.93;9.80;;;;;;;;;;5039105;28;20419;-75
2022/03/21 09:10:15;;;;;;;26.83;8.70;;;;;;;;;;5039155;28;20470;-75
2022/03/21 09:12:44;;;;;;;19.87;9.13;;;;;;;;;;5036731;28;20477;-75
2022/03/21 09:15:11;;;;;;;39.67;11.20;;;;;;;;;;5039716;28;20470;-75
2022/03/21 09:17:38;;;;;;;23.70;9.97;;;;;;;;;;5033389;28;20410;-75
2022/03/21 09:20:04;;;;;;;22.63;10.50;;;;;;;;;;5032896;28;20781;-75
2022/03/21 09:22:31;;;;;;;18.10;8.63;;;;;;;;;;5037071;28;20457;-76
2022/03/21 09:24:58;;;;;;;23.70;9.47;;;;;;;;;;5036496;28;20503;-75
2022/03/21 09:27:26;;;;;;;19.70;9.97;;;;;;;;;;5032933;28;20423;-75
2022/03/21 09:29:52;;;;;;;16.90;8.70;;;;;;;;;;5033016;28;20411;-75
2022/03/21 09:32:20;;;;;;;21.57;9.20;;;;;;;;;;5033407;28;20909;-75
2022/03/21 09:34:46;;;;;;;21.70;10.30;;;;;;;;;;5032995;28;20415;-75
2022/03/21 09:37:12;;;;;;;21.90;9.93;;;;;;;;;;5033465;28;20422;-73
2022/03/21 09:39:38;;;;;;;47.47;11.50;;;;;;;;;;5032832;28;20407;-74
2022/03/21 09:42:05;;;;;;;24.90;10.00;;;;;;;;;;5032636;28;20792;-73
2022/03/21 09:44:34;;;;;;;25.37;10.50;;;;;;;;;;5032850;28;20411;-73
2022/03/21 09:48:08;;;;;;;27.53;10.70;;;12.50;99.90;;;;;;5032576;28;20415;-73
2022/03/21 09:49:51;;;;;;;20.83;9.27;;;12.50;99.90;;;;;;5032596;28;20433;-74
2022/03/21 09:52:17;;;;;;;24.03;10.10;;;;;;;;;;5033136;28;20415;-75
2022/03/21 09:54:43;;;;;;;19.03;9.20;;;;;;;;;;5033323;28;20516;-76
2022/03/21 09:57:20;;;;;;;21.20;9.57;;;;;;;;;;5036627;28;20522;-75
2022/03/21 09:59:50;;;;;;;25.37;9.67;;;;;;;;;;5036722;28;20490;-78
2022/03/21 10:02:26;;;;;;;20.23;8.93;;;;;;;;;;5036510;28;20436;-78
2022/03/21 10:08:22;;;;;;;19.00;9.57;;;;;;;;;;5039315;28;20429;-78
2022/03/21 10:11:04;;;;;;;18.17;8.80;;;13.00;99.90;;;;;;5027025;28;20411;-78
2022/03/21 10:14:21;;;;;;;17.20;8.90;;;13.20;99.90;;;;;;5034768;28;20430;-78
2022/03/21 10:16:52;;;;;;;19.37;9.23;;;;;;;;;;4937040;29;20450;-78
2022/03/21 10:22:55;;;;;;;17.67;10.20;;;;;;;;;;4937050;29;20862;-78
2022/03/21 10:25:49;;;;;;;20.40;9.37;;;13.70;99.90;;;;;;4936783;29;20506;-78
2022/03/21 10:28:43;;;;;;;16.77;10.00;;;13.80;99.90;;;;;;4936829;29;20792;-78
2022/03/21 10:31:40;;;;;;;26.50;9.37;;;;;;;;;;4936746;29;20423;-78
2022/03/21 10:34:43;;;;;;;21.87;10.30;;;;;;;;;;4904525;29;20865;-78
2022/03/21 10:37:15;;;;;;;20.27;9.87;;;;;;;;;;4911133;29;20411;-80
2022/03/21 10:43:14;;;;;;;16.80;9.80;;;14.40;99.90;;;;;;4897004;29;20439;-81
2022/03/21 10:46:25;;;;;;;20.10;9.87;;;14.40;99.90;;;;;;4898143;29;20411;-80
2022/03/21 10:49:27;;;;;;;18.17;10.00;;;14.30;99.90;;;;;;4910293;29;20405;-81
2022/03/21 10:55:21;;;;;;;24.30;11.13;;;;;;;;;;4988357;28;20524;-79
2022/03/21 10:58:07;;;;;;;23.97;10.00;;;14.70;99.90;;;;;;4994182;28;21068;-77
2022/03/21 11:00:55;;;;;;;20.00;9.90;;;14.70;99.90;;;;;;4994135;28;20456;-78
2022/03/21 11:03:21;;;;;;;23.20;9.80;;;;;;;;;;4994392;28;20512;-78
2022/03/21 11:05:56;;;;;;;20.80;10.40;;;;;;;;;;4993999;28;20387;-78
2022/03/21 11:08:22;;;;;;;27.67;11.43;;;;;;;;;;4994244;28;20841;-80
2022/03/21 11:10:50;;;;;;;23.90;10.37;;;;;;;;;;5004933;28;20434;-77
2022/03/21 11:14:01;;;;;;;20.37;10.33;;;15.20;99.90;;;;;;5014184;28;20763;-80
2022/03/21 11:16:49;;;;;;;21.00;10.90;;;;;;;;;;5035184;28;20394;-80
2022/03/21 11:19:15;;;;;;;23.60;11.37;;;;;;;;;;5033978;28;20415;-79
2022/03/21 11:21:42;;;;;;;21.63;10.90;;;14.90;99.90;;;;;;5035136;28;20540;-79
2022/03/21 11:24:11;;;;;;;33.00;11.63;;;15.00;99.90;;;;;;5034510;28;20471;-78
2022/03/21 11:27:14;;;;;;;32.43;11.13;;;15.10;99.90;;;;;;5035092;28;20926;-78
2022/03/21 11:30:07;;;;;;;25.07;11.47;;;15.00;99.90;;;;;;5035538;28;20415;-79
2022/03/21 11:32:50;;;;;;;33.90;12.23;;;;;;;;;;5039645;28;20444;-79
2022/03/21 11:35:17;;;;;;;29.30;10.60;;;;;;;;;;5035257;28;20769;-79
2022/03/21 11:38:16;;;;;;;20.70;10.93;;;;;;;;;;5032011;28;20378;-79
2022/03/21 11:40:44;;;;;;;18.80;10.47;;;;;;;;;;5032824;28;20455;-78
2022/03/21 11:43:32;;;;;;;21.63;9.97;;;15.80;99.90;;;;;;5034480;28;20887;-78
2022/03/21 11:45:58;;;;;;;28.10;10.90;;;;;;;;;;5036488;28;20431;-78
2022/03/21 11:48:24;;;;;;;38.23;12.57;;;;;;;;;;5035241;28;20498;-78
2022/03/21 11:51:33;;;;;;;23.73;10.77;;;16.10;99.90;;;;;;5052122;28;20440;-78
2022/03/21 11:53:59;;;;;;;18.70;9.53;;;;;;;;;;5027569;28;20439;-78
2022/03/21 11:56:53;;;;;;;26.70;11.30;;;16.30;99.90;;;;;;5040563;28;20419;-78
2022/03/21 11:59:46;;;;;;;28.27;11.33;;;16.30;99.90;;;;;;5045811;28;20427;-78
2022/03/21 12:02:13;;;;;;;23.20;10.53;;;;;;;;;;5021411;28;20419;-77
2022/03/21 12:04:42;;;;;;;41.80;13.37;;;;;;;;;;5039663;28;20379;-78
2022/03/21 12:07:14;;;;;;;43.50;11.90;;;;;;;;;;5034328;28;20418;-75
2022/03/21 12:09:40;;;;;;;28.93;11.50;;;;;;;;;;5038056;28;20403;-75
2022/03/21 12:12:06;;;;;;;32.23;11.60;;;;;;;;;;5033296;28;20409;-75
2022/03/21 12:14:40;;;;;;;32.10;12.00;;;16.70;99.90;;;;;;5037280;28;20507;-75
2022/03/21 12:17:06;;;;;;;29.80;11.83;;;;;;;;;;5033097;28;20499;-75
2022/03/21 12:20:01;;;;;;;28.93;11.73;;;;;;;;;;5032996;28;20477;-75
2022/03/21 12:22:34;;;;;;;24.23;11.07;;;;;;;;;;5033422;28;20472;-75
2022/03/21 12:25:09;;;;;;;23.43;10.50;;;;;;;;;;5033095;28;20413;-75
2022/03/21 12:27:35;;;;;;;34.10;12.00;;;;;;;;;;5032899;28;20444;-75
2022/03/21 12:30:19;;;;;;;34.17;11.73;;;17.50;99.90;;;;;;5035514;28;20428;-75
2022/03/21 12:32:48;;;;;;;48.83;13.27;;;;;;;;;;5031438;28;20439;-75
2022/03/21 12:35:32;;;;;;;27.33;11.50;;;;;;;;;;5033208;28;20833;-75
2022/03/21 12:38:16;;;;;;;30.83;11.60;;;17.90;99.90;;;;;;5038116;28;20428;-75
2022/03/21 12:40:51;;;;;;;29.07;11.40;;;;;;;;;;5032604;28;20457;-75
2022/03/21 12:43:21;;;;;;;27.57;12.03;;;;;;;;;;5033726;28;21158;-75
2022/03/21 12:45:49;;;;;;;23.87;10.93;;;17.80;99.90;;;;;;5032820;28;20414;-75
2022/03/21 12:48:19;;;;;;;30.93;12.00;;;;;;;;;;5032321;28;20436;-75
2022/03/21 12:50:49;;;;;;;24.27;11.30;;;18.20;99.90;;;;;;5032417;28;20418;-75
2022/03/21 12:53:18;;;;;;;54.30;14.13;;;18.30;99.90;;;;;;5032599;28;20945;-74
2022/03/21 12:55:45;;;;;;;35.97;11.47;;;;;;;;;;5032440;28;20417;-75
2022/03/21 12:58:12;;;;;;;66.50;16.00;;;;;;;;;;5037469;28;20420;-75
2022/03/21 13:00:40;;;;;;;49.93;13.70;;;18.10;99.90;;;;;;5032322;28;20460;-75
2022/03/21 13:03:11;;;;;;;28.70;11.60;;;18.20;99.90;;;;;;5033020;28;20551;-75
2022/03/21 13:11:45;;;;;;;25.43;12.17;;;18.60;99.90;;;;;;5032898;28;20457;-74
2022/03/21 13:14:16;;;;;;;34.30;12.43;;;;;;;;;;5032967;28;20429;-75
2022/03/21 13:16:52;;;;;;;34.97;10.90;;;;;;;;;;5034273;28;20389;-74
2022/03/21 13:19:20;;;;;;;29.67;11.77;;;18.80;99.90;;;;;;5032776;28;20833;-75
2022/03/21 13:21:49;;;;;;;29.47;11.70;;;;;;;;;;5032779;28;20943;-75
2022/03/21 13:24:16;;;;;;;92.27;16.70;;;;;;;;;;5030646;28;20469;-75
2022/03/21 13:26:45;;;;;;;29.27;11.00;;;;;;;;;;5040469;28;20433;-75
2022/03/21 13:29:14;;;;;;;27.97;11.77;;;;;;;;;;5033128;28;20434;-75
2022/03/21 13:31:42;;;;;;;37.70;13.17;;;;;;;;;;5036967;28;20430;-75
2022/03/21 13:34:11;;;;;;;31.13;11.87;;;;;;;;;;5036641;28;20438;-75
2022/03/21 13:36:42;;;;;;;28.93;10.93;;;;;;;;;;5041011;28;20433;-75
2022/03/21 13:39:24;;;;;;;45.30;13.30;;;18.80;99.90;;;;;;5035321;28;20501;-76
2022/03/21 13:41:58;;;;;;;40.03;11.83;;;18.70;99.90;;;;;;5035590;28;20568;-75
2022/03/21 13:44:27;;;;;;;33.50;11.93;;;18.60;99.90;;;;;;5036888;28;20395;-76
2022/03/21 13:47:14;;;;;;;32.10;12.77;;;18.80;99.90;;;;;;5042539;28;20430;-78
2022/03/21 13:49:43;;;;;;;25.97;11.40;;;;;;;;;;5029220;28;20953;-78
2022/03/21 13:52:41;;;;;;;25.00;11.83;;;19.00;99.90;;;;;;5038565;28;20426;-79
2022/03/21 13:55:29;;;;;;;28.37;12.50;;;19.10;99.90;;;;;;5024174;28;20434;-79
2022/03/21 13:57:55;;;;;;;29.37;11.87;;;;;;;;;;4993982;28;20448;-79
2022/03/21 14:00:31;;;;;;;31.33;12.10;;;19.10;99.90;;;;;;4994123;28;20463;-79
2022/03/21 14:03:02;;;;;;;28.03;11.80;;;19.10;99.90;;;;;;4994273;28;20562;-79
2022/03/21 14:06:03;;;;;;;27.63;11.53;;;19.00;99.90;;;;;;4994519;28;20439;-79
2022/03/21 14:08:32;;;;;;;26.70;11.50;;;;;;;;;;4986591;28;20432;-79
2022/03/21 14:11:32;;;;;;;21.30;11.60;;;18.80;99.90;;;;;;4995011;28;20459;-79
2022/03/21 14:14:32;;;;;;;19.50;10.50;;;18.70;99.90;;;;;;4994976;28;20394;-79
2022/03/21 14:17:04;;;;;;;21.57;10.90;;;18.80;99.90;;;;;;4994900;28;20481;-80
2022/03/21 14:19:30;;;;;;;23.87;9.80;;;;;;;;;;4994599;28;20440;-80
2022/03/21 14:22:02;;;;;;;23.73;11.10;;;;;;;;;;4994686;28;20486;-80
2022/03/21 14:24:32;;;;;;;25.30;10.10;;;;;;;;;;4995077;28;20497;-76
2022/03/21 14:26:58;;;;;;;33.53;10.90;;;;;;;;;;4994748;28;20432;-77
2022/03/21 14:29:33;;;;;;;22.97;10.20;;;;;;;;;;4994237;28;20991;-76
2022/03/21 14:32:02;;;;;;;24.97;10.97;;;;;;;;;;4994537;28;20428;-77
2022/03/21 14:34:28;;;;;;;24.37;10.93;;;;;;;;;;5000585;28;20431;-76
2022/03/21 14:36:56;;;;;;;26.00;11.00;;;;;;;;;;5033687;28;20417;-77
2022/03/21 14:39:32;;;;;;;21.40;11.20;;;;;;;;;;5036258;28;20480;-77
2022/03/21 14:42:02;;;;;;;34.97;12.30;;;;;;;;;;5034470;28;20825;-77
2022/03/21 14:44:28;;;;;;;37.27;13.03;;;;;;;;;;5037739;28;20415;-77
2022/03/21 14:46:56;;;;;;;30.10;10.47;;;;;;;;;;5040031;28;20938;-78
2022/03/21 14:49:22;;;;;;;30.97;12.33;;;;;;;;;;5050858;28;20418;-78
2022/03/21 14:52:02;;;;;;;19.10;10.37;;;;;;;;;;5038432;28;20443;-78
2022/03/21 14:54:32;;;;;;;30.63;11.20;;;;;;;;;;5027046;28;20415;-82
2022/03/21 14:56:59;;;;;;;418.57;38.33;;;;;;;;;;5028393;28;20436;-74
2022/03/21 14:59:25;;;;;;;23.03;10.97;;;;;;;;;;5036300;28;20435;-74
2022/03/21 15:01:52;;;;;;;23.67;10.73;;;;;;;;;;5034942;28;20474;-74
2022/03/21 15:04:21;;;;;;;25.90;11.37;;;;;;;;;;5038632;28;20437;-79